createdAt,value
2019-03-27T00:00:38.820Z,39.58
2019-03-27T00:03:09.149Z,43.48
2019-03-27T00:05:39.576Z,42.67
2019-03-27T00:08:10.107Z,48.20
2019-03-27T00:10:40.648Z,44.00
2019-03-27T00:13:11.167Z,43.83
2019-03-27T00:15:42.215Z,47.23
2019-03-27T00:18:12.246Z,45.85
2019-03-27T00:20:42.867Z,49.55
2019-03-27T00:23:12.967Z,41.30
2019-03-27T00:25:43.415Z,44.50
2019-03-27T00:28:13.719Z,41.60
2019-03-27T00:30:44.368Z,38.53
2019-03-27T00:33:15.107Z,33.67
2019-03-27T00:35:45.638Z,31.48
2019-03-27T00:38:16.062Z,36.53
2019-03-27T00:40:46.580Z,31.95
2019-03-27T00:43:16.994Z,33.13
2019-03-27T00:45:47.413Z,32.30
2019-03-27T00:48:18.072Z,33.38
2019-03-27T00:50:48.182Z,31.35
2019-03-27T00:53:18.395Z,39.58
2019-03-27T00:55:48.750Z,55.05
2019-03-27T00:58:19.052Z,54.03
2019-03-27T01:00:50.913Z,58.60
2019-03-27T01:03:21.341Z,62.03
2019-03-27T01:05:51.570Z,65.10
2019-03-27T01:08:22.091Z,64.65
2019-03-27T01:10:52.634Z,65.50
2019-03-27T01:13:24.183Z,67.27
2019-03-27T01:15:54.294Z,67.65
2019-03-27T01:18:24.685Z,68.50
2019-03-27T01:20:56.787Z,71.17
2019-03-27T01:23:27.222Z,62.13
2019-03-27T01:25:57.563Z,63.75
2019-03-27T01:28:28.888Z,69.70
2019-03-27T01:30:59.273Z,60.85
2019-03-27T01:33:29.658Z,70.65
2019-03-27T01:36:00.441Z,62.33
2019-03-27T01:38:30.897Z,57.03
2019-03-27T01:41:01.101Z,56.05
2019-03-27T01:43:31.855Z,54.40
2019-03-27T01:46:01.877Z,60.55
2019-03-27T01:48:33.254Z,50.40
2019-03-27T01:51:03.865Z,45.65
2019-03-27T01:53:34.389Z,49.77
2019-03-27T01:56:04.717Z,44.33
2019-03-27T01:58:35.097Z,43.33
2019-03-27T02:01:05.452Z,43.55
2019-03-27T02:03:35.879Z,48.35
2019-03-27T02:06:06.416Z,39.73
2019-03-27T02:08:37.038Z,41.10
2019-03-27T02:11:07.276Z,38.73
2019-03-27T02:13:37.638Z,35.95
2019-03-27T02:16:07.993Z,39.10
2019-03-27T02:18:38.356Z,32.75
2019-03-27T02:21:08.666Z,33.05
2019-03-27T02:23:38.891Z,30.88
2019-03-27T02:26:09.421Z,28.15
2019-03-27T02:28:39.434Z,34.80
2019-03-27T02:31:09.966Z,32.65
2019-03-27T02:33:40.399Z,30.60
2019-03-27T02:36:11.440Z,32.33
2019-03-27T02:38:41.759Z,33.40
2019-03-27T02:41:12.302Z,27.80
2019-03-27T02:43:42.712Z,32.67
2019-03-27T02:46:24.587Z,32.25
2019-03-27T02:48:45.003Z,27.97
2019-03-27T02:51:15.633Z,32.93
2019-03-27T02:53:46.919Z,33.45
2019-03-27T02:56:17.627Z,32.78
2019-03-27T02:58:48.251Z,33.15
2019-03-27T03:01:18.634Z,34.88
2019-03-27T03:03:49.209Z,51.40
2019-03-27T03:06:21.581Z,49.18
2019-03-27T03:08:51.802Z,51.73
2019-03-27T03:11:22.244Z,58.80
2019-03-27T03:13:52.768Z,61.48
2019-03-27T03:16:40.716Z,72.95
2019-03-27T03:18:55.159Z,66.72
2019-03-27T03:21:25.700Z,73.62
2019-03-27T03:23:57.940Z,82.85
2019-03-27T03:26:28.383Z,87.95
2019-03-27T03:28:59.029Z,86.08
2019-03-27T03:31:29.190Z,96.30
2019-03-27T03:33:59.622Z,86.30
2019-03-27T03:36:30.285Z,110.70
2019-03-27T03:39:01.034Z,117.55
2019-03-27T03:41:33.075Z,116.97
2019-03-27T03:44:03.726Z,115.17
2019-03-27T03:46:33.846Z,129.12
2019-03-27T03:49:04.060Z,122.85
2019-03-27T03:51:34.381Z,115.30
2019-03-27T03:54:04.807Z,97.55
2019-03-27T03:56:35.443Z,92.12
2019-03-27T03:59:05.786Z,104.45
2019-03-27T04:01:37.022Z,93.78
2019-03-27T04:04:07.241Z,114.85
2019-03-27T04:06:38.177Z,97.78
2019-03-27T04:09:08.616Z,92.47
2019-03-27T04:11:39.132Z,105.75
2019-03-27T04:14:09.584Z,84.85
2019-03-27T04:16:39.933Z,95.67
2019-03-27T04:19:10.415Z,87.53
2019-03-27T04:21:41.751Z,82.37
2019-03-27T04:24:12.500Z,81.67
2019-03-27T04:26:42.711Z,81.02
2019-03-27T04:29:13.573Z,77.53
2019-03-27T04:31:44.074Z,79.60
2019-03-27T04:34:14.705Z,69.35
2019-03-27T04:36:45.234Z,75.10
2019-03-27T04:39:15.866Z,64.25
2019-03-27T04:41:46.512Z,59.70
2019-03-27T04:44:17.126Z,58.90
2019-03-27T04:46:47.661Z,65.78
2019-03-27T04:49:18.051Z,59.23
2019-03-27T04:51:48.405Z,70.22
2019-03-27T04:54:19.060Z,69.75
2019-03-27T04:56:49.297Z,81.20
2019-03-27T04:59:20.103Z,72.95
2019-03-27T05:01:50.632Z,75.30
2019-03-27T05:04:21.677Z,76.85
2019-03-27T05:06:51.912Z,81.30
2019-03-27T05:09:22.233Z,86.40
2019-03-27T05:11:52.752Z,81.57
2019-03-27T05:14:23.281Z,77.65
2019-03-27T05:16:53.820Z,78.62
2019-03-27T05:19:24.542Z,87.80
2019-03-27T05:21:55.382Z,78.65
2019-03-27T05:24:25.905Z,76.10
2019-03-27T05:26:56.062Z,78.97
2019-03-27T05:29:26.511Z,80.57
2019-03-27T05:52:39.719Z,106.03
2019-03-27T05:55:10.363Z,92.42
2019-03-27T05:57:40.688Z,76.67
2019-03-27T06:00:11.717Z,67.20
2019-03-27T06:02:43.989Z,62.03
2019-03-27T06:05:14.332Z,57.00
2019-03-27T06:07:44.940Z,55.45
2019-03-27T06:10:16.519Z,50.75
2019-03-27T06:12:47.371Z,55.40
2019-03-27T06:15:17.553Z,45.52
2019-03-27T06:17:47.954Z,35.23
2019-03-27T06:20:19.127Z,43.10
2019-03-27T06:22:49.859Z,29.77
2019-03-27T06:25:20.315Z,28.32
2019-03-27T06:27:50.816Z,35.30
2019-03-27T06:30:21.042Z,39.03
2019-03-27T06:32:51.674Z,45.40
2019-03-27T06:35:22.518Z,30.40
2019-03-27T06:37:52.940Z,37.35
2019-03-27T06:40:23.361Z,33.78
2019-03-27T06:42:53.897Z,29.27
2019-03-27T06:45:24.431Z,24.63
2019-03-27T06:47:54.757Z,13.25
2019-03-27T06:50:25.081Z,19.48
2019-03-27T06:52:55.790Z,19.40
2019-03-27T06:55:26.328Z,18.00
2019-03-27T06:57:56.870Z,19.40
2019-03-27T07:00:33.833Z,17.00
2019-03-27T07:03:04.979Z,14.50
2019-03-27T07:05:35.220Z,8.80
2019-03-27T07:08:05.656Z,11.80
2019-03-27T07:10:37.502Z,10.65
2019-03-27T07:13:08.838Z,7.47
2019-03-27T07:15:39.268Z,10.85
2019-03-27T07:18:09.796Z,7.58
2019-03-27T07:20:41.149Z,7.10
2019-03-27T07:23:11.710Z,6.08
2019-03-27T07:25:42.423Z,9.80
2019-03-27T07:28:12.637Z,4.78
2019-03-27T07:30:43.038Z,5.25
2019-03-27T07:33:13.910Z,9.65
2019-03-27T07:35:44.273Z,9.30
2019-03-27T07:38:14.664Z,9.43
2019-03-27T07:40:45.078Z,8.38
2019-03-27T07:43:15.704Z,7.05
2019-03-27T07:45:46.354Z,10.23
2019-03-27T07:48:16.551Z,5.28
2019-03-27T07:50:47.204Z,7.33
2019-03-27T07:53:17.743Z,27.58
2019-03-27T07:55:48.285Z,7.47
2019-03-27T07:58:18.681Z,4.87
2019-03-27T08:00:50.549Z,11.57
2019-03-27T08:05:51.937Z,11.12
2019-03-27T08:08:22.134Z,4.78
2019-03-27T08:10:52.651Z,6.78
2019-03-27T08:13:24.315Z,5.17
2019-03-27T08:15:54.341Z,5.12
2019-03-27T08:18:25.680Z,5.30
2019-03-27T08:20:56.178Z,7.22
2019-03-27T08:23:26.838Z,5.45
2019-03-27T08:25:57.367Z,3.72
2019-03-27T08:28:27.913Z,3.98
2019-03-27T08:30:58.854Z,7.00
2019-03-27T08:33:29.375Z,5.80
2019-03-27T08:35:59.589Z,4.60
2019-03-27T08:38:30.131Z,8.70
2019-03-27T08:41:01.264Z,10.48
2019-03-27T08:43:31.702Z,6.85
2019-03-27T08:46:02.362Z,12.90
2019-03-27T08:48:32.949Z,7.45
2019-03-27T08:51:03.584Z,10.28
2019-03-27T08:53:34.315Z,6.00
2019-03-27T08:56:04.865Z,5.60
2019-03-27T08:58:35.596Z,9.03
2019-03-27T09:01:05.738Z,8.45
2019-03-27T09:03:36.358Z,8.28
2019-03-27T09:06:06.854Z,8.28
2019-03-27T09:08:37.853Z,8.25
2019-03-27T09:11:08.694Z,6.50
2019-03-27T09:13:40.815Z,9.15
2019-03-27T09:16:11.209Z,9.43
2019-03-27T09:18:41.570Z,10.48
2019-03-27T09:21:13.037Z,12.58
2019-03-27T09:23:45.662Z,13.00
2019-03-27T09:26:15.475Z,21.23
2019-03-27T09:28:46.038Z,11.83
2019-03-27T09:31:16.578Z,14.60
2019-03-27T09:33:47.090Z,10.82
2019-03-27T09:36:17.721Z,11.03
2019-03-27T09:38:48.073Z,11.20
2019-03-27T09:41:21.372Z,16.12
2019-03-27T09:43:50.611Z,9.00
2019-03-27T09:46:21.387Z,6.22
2019-03-27T09:48:52.024Z,6.72
2019-03-27T09:51:22.274Z,6.95
2019-03-27T09:53:53.318Z,7.80
2019-03-27T09:56:24.099Z,7.65
2019-03-27T09:58:54.401Z,7.65
2019-03-27T10:01:24.877Z,4.78
2019-03-27T10:03:55.385Z,5.50
2019-03-27T10:06:26.130Z,7.53
2019-03-27T10:08:56.542Z,6.87
2019-03-27T10:11:26.988Z,5.70
2019-03-27T10:13:57.160Z,9.68
2019-03-27T10:16:27.824Z,7.92
2019-03-27T10:18:58.253Z,7.78
2019-03-27T10:21:28.990Z,10.23
2019-03-27T10:23:59.330Z,6.60
2019-03-27T10:26:29.880Z,8.08
2019-03-27T10:29:00.425Z,7.62
2019-03-27T10:31:30.895Z,9.90
2019-03-27T10:34:01.327Z,9.63
2019-03-27T10:36:31.647Z,9.60
2019-03-27T10:39:05.678Z,6.22
2019-03-27T10:41:36.103Z,9.85
2019-03-27T10:44:06.920Z,7.20
2019-03-27T10:46:37.679Z,11.55
2019-03-27T10:49:07.899Z,9.28
2019-03-27T10:51:38.527Z,7.42
2019-03-27T10:54:09.069Z,6.55
2019-03-27T10:56:39.587Z,7.08
2019-03-27T10:59:10.206Z,9.75
2019-03-27T11:01:40.556Z,9.08
2019-03-27T11:04:11.077Z,6.97
2019-03-27T11:06:41.486Z,11.90
2019-03-27T11:09:12.142Z,8.23
2019-03-27T11:11:42.677Z,7.70
2019-03-27T11:14:13.289Z,8.53
2019-03-27T11:16:43.571Z,9.70
2019-03-27T11:19:14.048Z,13.25
2019-03-27T11:21:44.555Z,9.75
2019-03-27T11:24:15.103Z,8.55
2019-03-27T11:26:45.507Z,8.68
2019-03-27T11:29:16.145Z,11.30
2019-03-27T11:31:46.278Z,10.50
2019-03-27T11:34:17.033Z,12.78
2019-03-27T11:36:47.529Z,10.58
2019-03-27T11:39:18.287Z,9.10
2019-03-27T11:41:49.829Z,11.50
2019-03-27T11:44:20.462Z,12.30
2019-03-27T11:46:50.667Z,8.73
2019-03-27T11:49:21.093Z,9.40
2019-03-27T11:51:51.508Z,11.60
2019-03-27T11:54:22.066Z,16.60
2019-03-27T11:56:52.180Z,14.45
2019-03-27T11:59:22.833Z,16.93
2019-03-27T12:01:53.345Z,18.87
2019-03-27T12:04:23.917Z,20.35
2019-03-27T12:06:54.081Z,12.90
2019-03-27T12:09:25.129Z,12.50
2019-03-27T12:11:55.880Z,13.40
2019-03-27T12:14:26.500Z,14.25
2019-03-27T12:16:57.354Z,15.83
2019-03-27T12:19:27.566Z,13.58
2019-03-27T12:21:58.313Z,14.75
2019-03-27T12:24:29.015Z,20.05
2019-03-27T12:26:59.609Z,27.85
2019-03-27T12:29:29.814Z,15.10
2019-03-27T12:32:00.325Z,22.35
2019-03-27T12:34:31.067Z,22.02
2019-03-27T12:37:01.477Z,22.73
2019-03-27T12:39:31.632Z,19.40
2019-03-27T12:42:02.236Z,22.27
2019-03-27T12:44:32.617Z,23.60
2019-03-27T12:47:02.988Z,24.27
2019-03-27T12:49:33.469Z,20.50
2019-03-27T12:52:05.586Z,25.92
2019-03-27T12:54:37.430Z,21.10
2019-03-27T12:57:08.179Z,18.25
2019-03-27T12:59:38.504Z,16.45
2019-03-27T13:02:08.616Z,24.35
2019-03-27T13:04:39.362Z,16.80
2019-03-27T13:07:10.094Z,18.80
2019-03-27T13:09:40.710Z,24.05
2019-03-27T13:12:11.132Z,25.30
2019-03-27T13:14:41.579Z,25.85
2019-03-27T13:17:12.527Z,26.95
2019-03-27T13:19:43.352Z,18.15
2019-03-27T13:22:13.562Z,15.83
2019-03-27T13:24:43.880Z,17.82
2019-03-27T13:27:14.323Z,21.87
2019-03-27T13:29:44.813Z,17.57
2019-03-27T13:32:15.234Z,19.92
2019-03-27T13:34:46.223Z,17.67
2019-03-27T13:37:16.457Z,21.68
2019-03-27T13:39:46.985Z,25.97
2019-03-27T13:42:17.591Z,20.85
2019-03-27T13:44:48.125Z,23.57
2019-03-27T13:47:18.651Z,19.77
2019-03-27T13:49:49.311Z,22.70
2019-03-27T13:52:23.210Z,22.70
2019-03-27T13:54:58.317Z,22.73
2019-03-27T13:57:29.044Z,23.85
2019-03-27T13:59:59.612Z,26.37
2019-03-27T14:02:30.341Z,27.90
2019-03-27T14:05:02.511Z,22.77
2019-03-27T14:07:33.550Z,19.82
2019-03-27T14:10:05.402Z,18.23
2019-03-27T14:12:35.807Z,21.12
2019-03-27T14:15:09.544Z,14.20
2019-03-27T14:17:40.073Z,18.82
2019-03-27T14:20:11.422Z,19.27
2019-03-27T14:22:41.624Z,16.37
2019-03-27T14:25:13.612Z,19.00
2019-03-27T14:27:45.547Z,22.75
2019-03-27T14:30:17.513Z,28.60
2019-03-27T14:32:48.157Z,26.80
2019-03-27T14:35:18.556Z,28.07
2019-03-27T14:37:49.024Z,35.52
2019-03-27T14:40:19.438Z,31.57
2019-03-27T14:42:50.094Z,38.40
2019-03-27T14:45:20.595Z,42.15
2019-03-27T14:47:51.012Z,35.05
2019-03-27T14:50:21.547Z,39.40
2019-03-27T14:52:52.039Z,35.68
2019-03-27T14:55:22.867Z,39.63
2019-03-27T14:57:53.218Z,39.88
2019-03-27T15:00:23.765Z,39.38
2019-03-27T15:02:54.209Z,44.08
2019-03-27T15:05:24.714Z,44.85
2019-03-27T15:07:55.012Z,46.60
2019-03-27T15:10:26.303Z,46.68
2019-03-27T15:12:56.737Z,53.00
2019-03-27T15:15:27.263Z,65.05
2019-03-27T15:17:59.735Z,63.45
2019-03-27T15:20:30.269Z,65.12
2019-03-27T15:23:00.688Z,65.03
2019-03-27T15:25:31.225Z,69.30
2019-03-27T15:28:01.639Z,88.45
2019-03-27T15:30:32.059Z,88.58
2019-03-27T15:33:02.428Z,89.03
2019-03-27T15:35:33.234Z,94.20
2019-03-27T15:38:03.340Z,86.75
2019-03-27T15:40:40.221Z,90.70
2019-03-27T15:43:10.355Z,90.15
2019-03-27T15:45:42.126Z,76.42
2019-03-27T15:48:12.827Z,84.60
2019-03-27T15:50:54.353Z,85.75
2019-03-27T15:53:15.499Z,93.93
2019-03-27T15:55:45.980Z,77.15
2019-03-27T15:58:16.630Z,80.05
2019-03-27T16:00:47.452Z,67.37
2019-03-27T16:03:17.762Z,63.05
2019-03-27T16:05:47.893Z,48.85
2019-03-27T16:08:18.504Z,48.80
2019-03-27T16:10:49.144Z,36.73
2019-03-27T16:13:19.653Z,35.83
2019-03-27T16:15:50.195Z,35.95
2019-03-27T16:18:20.635Z,37.28
2019-03-27T16:20:51.039Z,37.13
2019-03-27T16:23:21.784Z,37.53
2019-03-27T16:25:52.195Z,42.35
2019-03-27T16:28:22.850Z,32.23
2019-03-27T16:30:55.675Z,29.67
2019-03-27T16:33:25.962Z,22.90
2019-03-27T16:35:58.521Z,18.60
2019-03-27T16:38:28.855Z,20.30
2019-03-27T16:40:59.854Z,20.65
2019-03-27T16:43:30.944Z,28.57
2019-03-27T16:46:01.675Z,24.70
2019-03-27T16:48:31.782Z,28.77
2019-03-27T16:51:03.348Z,25.50
2019-03-27T16:53:33.661Z,21.60
2019-03-27T16:56:04.304Z,14.70
2019-03-27T16:58:34.519Z,9.03
2019-03-27T17:01:05.064Z,12.30
2019-03-27T17:03:35.672Z,12.82
2019-03-27T17:06:06.254Z,12.60
2019-03-27T17:08:36.579Z,18.17
2019-03-27T17:11:06.948Z,22.05
2019-03-27T17:13:37.589Z,27.85
2019-03-27T17:16:08.028Z,31.55
2019-03-27T17:18:38.662Z,36.68
2019-03-27T17:21:08.881Z,40.88
2019-03-27T17:23:39.193Z,38.92
2019-03-27T17:26:09.425Z,36.70
2019-03-27T17:28:39.855Z,36.15
2019-03-27T17:31:09.960Z,38.63
2019-03-27T17:33:40.496Z,52.55
2019-03-27T17:36:11.032Z,62.65
2019-03-27T17:38:41.563Z,65.20
2019-03-27T17:41:12.355Z,59.58
2019-03-27T17:43:42.721Z,48.90
2019-03-27T17:46:13.251Z,45.58
2019-03-27T17:48:44.788Z,30.05
2019-03-27T17:51:15.436Z,30.77
2019-03-27T17:53:46.173Z,25.23
2019-03-27T17:56:16.497Z,22.80
2019-03-27T17:58:46.868Z,23.32
2019-03-27T18:01:17.790Z,21.48
2019-03-27T18:03:47.807Z,17.95
2019-03-27T18:06:18.503Z,18.55
2019-03-27T18:08:48.943Z,18.00
2019-03-27T18:11:19.347Z,18.95
2019-03-27T18:13:49.883Z,16.97
2019-03-27T18:16:20.310Z,16.93
2019-03-27T18:18:50.733Z,14.70
2019-03-27T18:21:21.407Z,16.05
2019-03-27T18:23:52.818Z,22.02
2019-03-27T18:26:23.347Z,21.90
2019-03-27T18:28:53.880Z,29.40
2019-03-27T18:31:24.625Z,25.48
2019-03-27T18:33:55.010Z,29.63
2019-03-27T18:36:25.464Z,32.20
2019-03-27T18:38:56.045Z,34.50
2019-03-27T18:41:26.536Z,30.50
2019-03-27T18:43:56.747Z,40.75
2019-03-27T18:46:27.391Z,45.80
2019-03-27T18:48:58.655Z,63.42
2019-03-27T18:51:29.063Z,67.25
2019-03-27T18:54:00.269Z,77.85
2019-03-27T18:56:30.469Z,88.97
2019-03-27T18:59:01.050Z,91.50
2019-03-27T19:01:31.651Z,100.80
2019-03-27T19:04:01.905Z,78.75
2019-03-27T19:06:32.236Z,75.05
2019-03-27T19:09:02.859Z,61.18
2019-03-27T19:11:34.623Z,54.55
2019-03-27T19:14:04.912Z,46.68
2019-03-27T19:16:35.381Z,34.38
2019-03-27T19:19:06.316Z,29.65
2019-03-27T19:21:36.368Z,21.50
2019-03-27T19:24:14.831Z,18.77
2019-03-27T19:26:39.325Z,17.10
2019-03-27T19:29:09.443Z,17.02
2019-03-27T19:31:40.002Z,19.15
2019-03-27T19:34:10.517Z,19.27
2019-03-27T19:36:41.075Z,22.32
2019-03-27T19:39:12.498Z,25.88
2019-03-27T19:41:42.709Z,26.23
2019-03-27T19:44:13.142Z,22.87
2019-03-27T19:46:43.864Z,27.30
2019-03-27T19:49:15.321Z,25.62
2019-03-27T19:51:45.755Z,25.12
2019-03-27T19:54:26.515Z,28.10
2019-03-27T19:56:49.261Z,31.52
2019-03-27T19:59:19.670Z,28.85
2019-03-27T20:01:50.140Z,36.17
2019-03-27T20:04:20.540Z,31.25
2019-03-27T20:06:50.698Z,35.03
2019-03-27T20:09:21.196Z,40.40
2019-03-27T20:11:51.766Z,31.80
2019-03-27T20:14:22.162Z,37.48
2019-03-27T20:16:52.670Z,33.45
2019-03-27T20:19:22.904Z,38.95
2019-03-27T20:21:58.356Z,33.88
2019-03-27T20:24:40.416Z,35.73
2019-03-27T20:27:00.723Z,37.17
2019-03-27T20:29:31.377Z,35.70
2019-03-27T20:32:01.377Z,37.70
2019-03-27T20:34:32.020Z,38.88
2019-03-27T20:37:03.565Z,33.48
2019-03-27T20:39:33.971Z,37.70
2019-03-27T20:42:04.433Z,34.67
2019-03-27T20:44:34.559Z,34.85
2019-03-27T20:47:07.926Z,35.05
2019-03-27T20:49:38.076Z,35.50
2019-03-27T20:52:08.598Z,31.97
2019-03-27T20:54:38.708Z,35.48
2019-03-27T20:57:09.238Z,33.05
2019-03-27T20:59:39.866Z,35.75
2019-03-27T21:02:10.293Z,35.28
2019-03-27T21:04:41.245Z,35.33
2019-03-27T21:07:11.571Z,33.42
2019-03-27T21:09:42.310Z,30.60
2019-03-27T21:12:14.882Z,32.73
2019-03-27T21:17:14.649Z,32.63
2019-03-27T21:19:45.240Z,35.63
2019-03-27T21:22:16.684Z,30.92
2019-03-27T21:24:47.735Z,33.33
2019-03-27T21:27:18.112Z,29.05
2019-03-27T21:29:48.577Z,28.75
2019-03-27T21:32:19.415Z,30.37
2019-03-27T21:34:49.838Z,27.85
2019-03-27T21:37:20.265Z,27.58
2019-03-27T21:39:50.705Z,28.52
2019-03-27T21:42:21.247Z,24.55
2019-03-27T21:44:51.781Z,28.47
2019-03-27T21:47:22.289Z,31.77
2019-03-27T21:49:52.390Z,24.52
2019-03-27T21:52:22.820Z,25.27
2019-03-27T21:54:53.250Z,26.97
2019-03-27T21:57:23.792Z,22.87
2019-03-27T21:59:54.438Z,24.23
2019-03-27T22:02:24.796Z,23.25
2019-03-27T22:04:55.374Z,24.87
2019-03-27T22:07:25.694Z,26.85
2019-03-27T22:09:56.235Z,30.95
2019-03-27T22:12:26.290Z,29.23
2019-03-27T22:14:56.980Z,34.35
2019-03-27T22:17:27.298Z,27.77
2019-03-27T22:19:57.834Z,27.82
2019-03-27T22:22:28.257Z,29.18
2019-03-27T22:24:58.681Z,29.20
2019-03-27T22:27:29.313Z,27.07
2019-03-27T22:29:59.667Z,32.15
2019-03-27T22:32:30.163Z,32.25
2019-03-27T22:35:00.677Z,31.90
2019-03-27T22:37:30.785Z,26.52
2019-03-27T22:40:01.240Z,34.90
2019-03-27T22:42:31.667Z,34.10
2019-03-27T22:45:02.197Z,32.95
2019-03-27T22:47:33.009Z,29.18
2019-03-27T22:50:07.757Z,32.00
2019-03-27T22:55:08.637Z,28.12
2019-03-27T22:57:40.267Z,29.52
2019-03-27T23:00:10.590Z,27.70
2019-03-27T23:02:42.653Z,31.10
2019-03-27T23:05:13.091Z,28.95
2019-03-27T23:07:43.549Z,28.05
2019-03-27T23:10:14.041Z,29.60
2019-03-27T23:12:44.586Z,25.77
2019-03-27T23:15:15.000Z,29.18
2019-03-27T23:17:45.328Z,26.90
2019-03-27T23:20:15.853Z,32.30
2019-03-27T23:22:46.295Z,31.00
2019-03-27T23:25:16.401Z,34.70
2019-03-27T23:27:46.933Z,33.58
2019-03-27T23:30:19.213Z,31.48
2019-03-27T23:32:49.420Z,29.67
2019-03-27T23:35:19.849Z,31.02
2019-03-27T23:37:50.297Z,33.48
2019-03-27T23:40:20.983Z,40.03
2019-03-27T23:42:52.341Z,40.90
2019-03-27T23:45:22.750Z,43.75
2019-03-27T23:47:53.113Z,44.05
2019-03-27T23:50:23.537Z,38.40
2019-03-27T23:52:53.965Z,36.70
2019-03-27T23:55:24.301Z,32.15
2019-03-27T23:57:55.859Z,27.50
